Time;durP1;ratioP1;P1;durP2;ratioP2;P2;SDS_P1;SDS_P2;PMS_P1;PMS_P2;Temp;Humidity;BMP_temperature;BMP_pressure;BME280_temperature;BME280_humidity;BME280_pressure;Samples;Min_cycle;Max_cycle;Signal;HPM_P1;HPM_P2
2022/06/13 00:04:04;;;;;;;9.18;6.55;;;;;;;;;;10367534;28;20057;-69
2022/06/13 00:09:07;;;;;;;10.35;6.40;;;;;;;;;;10366216;28;20053;-70
2022/06/13 00:14:10;;;;;;;9.90;6.65;;;;;;;;;;10366549;28;20258;-69
2022/06/13 00:19:14;;;;;;;8.50;6.25;;;;;;;;;;10359534;28;20090;-70
2022/06/13 00:24:17;;;;;;;7.63;6.28;;;;;;;;;;10353036;28;20066;-70
2022/06/13 00:29:19;;;;;;;11.25;6.57;;;;;;;;;;10366164;28;20085;-70
2022/06/13 00:34:23;;;;;;;8.25;6.43;;;;;;;;;;10366387;28;20065;-70
2022/06/13 00:39:25;;;;;;;10.90;7.37;;;;;;;;;;10366196;28;20053;-70
2022/06/13 00:44:32;;;;;;;10.13;7.05;;;;;;;;;;10366392;28;20042;-70
2022/06/13 00:49:40;;;;;;;13.00;7.65;;;;;;;;;;10365469;28;20348;-70
2022/06/13 00:54:44;;;;;;;11.02;7.82;;;;;;;;;;10366135;28;20050;-70
2022/06/13 00:59:48;;;;;;;9.10;6.88;;;;;;;;;;10366279;28;20046;-69
2022/06/13 01:04:53;;;;;;;9.87;7.50;;;;;;;;;;10365639;28;20043;-70
2022/06/13 01:15:32;;;;;;;8.85;7.70;;;;;;;;;;10352345;28;20070;-69
2022/06/13 01:20:50;;;;;;;11.57;7.90;;;;;;;;;;10363791;28;20070;-69
2022/06/13 01:26:19;;;;;;;12.00;8.55;;;;;;;;;;10373150;28;20050;-69
2022/06/13 01:31:27;;;;;;;11.38;8.07;;;;;;;;;;10364616;28;20043;-70
2022/06/13 01:36:42;;;;;;;14.75;8.48;;;;;;;;;;10332449;28;20050;-70
2022/06/13 01:41:57;;;;;;;14.60;8.20;;;;;;;;;;10353141;28;20233;-69
2022/06/13 01:47:08;;;;;;;9.23;8.15;;;;;;;;;;10372517;28;20042;-69
2022/06/13 01:52:20;;;;;;;11.52;9.02;;;;;;;;;;10338834;28;20043;-69
2022/06/13 01:57:30;;;;;;;14.73;10.60;;;;;;;;;;10364669;28;20050;-69
2022/06/13 02:02:41;;;;;;;11.77;9.18;;;;;;;;;;10371985;28;20057;-69
2022/06/13 02:07:47;;;;;;;12.73;10.18;;;;;;;;;;10331272;28;20086;-69
2022/06/13 02:12:54;;;;;;;12.38;10.35;;;;;;;;;;10340474;28;20045;-69
2022/06/13 02:18:03;;;;;;;18.55;10.35;;;;;;;;;;10370580;28;20042;-69
2022/06/13 02:23:09;;;;;;;7.63;6.20;;;;;;;;;;10359274;28;20349;-69
2022/06/13 02:28:18;;;;;;;10.10;8.45;;;;;;;;;;10357075;28;20117;-68
2022/06/13 02:33:26;;;;;;;11.48;9.30;;;;;;;;;;10340044;28;20066;-70
2022/06/13 02:38:35;;;;;;;10.07;8.70;;;;;;;;;;10346471;28;20061;-70
2022/06/13 02:43:41;;;;;;;10.23;8.60;;;;;;;;;;10370069;28;20038;-70
2022/06/13 02:48:52;;;;;;;11.88;8.25;;;;;;;;;;10369454;28;20065;-70
2022/06/13 02:54:04;;;;;;;7.57;6.50;;;;;;;;;;10369281;28;20326;-70
2022/06/13 02:59:17;;;;;;;10.13;6.50;;;;;;;;;;10369236;28;20053;-69
2022/06/13 03:04:31;;;;;;;9.52;7.18;;;;;;;;;;10369045;28;20080;-69
2022/06/13 03:09:42;;;;;;;9.25;6.65;;;;;;;;;;10355275;28;20227;-69
2022/06/13 03:14:52;;;;;;;8.57;6.20;;;;;;;;;;10355296;28;20057;-69
2022/06/13 03:20:02;;;;;;;10.40;6.63;;;;;;;;;;10354469;28;20246;-69
2022/06/13 03:25:12;;;;;;;8.70;4.93;;;;;;;;;;10367864;28;20049;-70
2022/06/13 03:30:17;;;;;;;5.72;2.92;;;;;;;;;;10368447;28;20042;-69
2022/06/13 03:35:22;;;;;;;3.83;2.95;;;;;;;;;;10332283;28;20051;-69
2022/06/13 03:40:28;;;;;;;3.50;3.20;;;;;;;;;;10361730;28;20269;-69
2022/06/13 03:45:35;;;;;;;2.92;2.70;;;;;;;;;;10365882;28;20053;-69
2022/06/13 03:50:44;;;;;;;3.40;3.00;;;;;;;;;;10349655;28;20046;-70
2022/06/13 03:55:51;;;;;;;4.22;2.70;;;;;;;;;;10354275;28;20058;-70
2022/06/13 04:00:59;;;;;;;2.22;2.03;;;;;;;;;;10365950;28;20104;-69
2022/06/13 04:06:06;;;;;;;9.18;8.68;;;;;;;;;;10366795;28;20042;-69
2022/06/13 04:11:20;;;;;;;10.43;9.65;;;;;;;;;;10366256;28;20053;-69
2022/06/13 04:16:27;;;;;;;;;;;;;;;;;;10367073;28;20073;-70
2022/06/13 04:21:36;;;;;;;5.28;3.30;;;;;;;;;;10352689;28;19964;-70
2022/06/13 04:26:45;;;;;;;17.90;16.13;;;;;;;;;;10366582;28;20061;-70
2022/06/13 04:31:49;;;;;;;4.45;3.63;;;;;;;;;;10366409;28;20042;-70
2022/06/13 04:36:53;;;;;;;3.67;2.95;;;;;;;;;;10365410;28;20042;-70
2022/06/13 04:41:59;;;;;;;2.92;2.72;;;;;;;;;;10367320;28;20057;-69
2022/06/13 04:47:02;;;;;;;7.57;3.50;;;;;;;;;;10365587;28;20062;-70
2022/06/13 04:52:10;;;;;;;6.53;6.03;;;;;;;;;;10366068;28;20054;-70
2022/06/13 04:57:14;;;;;;;7.20;6.50;;;;;;;;;;10356888;28;20058;-69
2022/06/13 05:02:22;;;;;;;7.93;4.88;;;;;;;;;;10373345;28;20049;-70
2022/06/13 05:07:27;;;;;;;7.50;4.57;;;;;;;;;;10373947;28;20045;-69
2022/06/13 05:12:33;;;;;;;5.35;3.55;;;;;;;;;;10367007;28;20042;-69
2022/06/13 05:17:53;;;;;;;10.23;4.25;;;;;;;;;;10370863;28;20046;-70
2022/06/13 05:23:19;;;;;;;5.13;3.53;;;;;;;;;;10357914;28;20050;-69
2022/06/13 05:28:23;;;;;;;15.35;4.10;;;;;;;;;;10357144;28;20097;-70
2022/06/13 05:33:29;;;;;;;4.35;3.55;;;;;;;;;;10356095;28;20231;-70
2022/06/13 05:38:36;;;;;;;5.30;3.40;;;;;;;;;;10370000;28;20053;-70
2022/06/13 05:43:39;;;;;;;5.38;3.85;;;;;;;;;;10366061;28;20042;-70
2022/06/13 05:48:41;;;;;;;6.35;3.50;;;;;;;;;;10368897;28;20042;-70
2022/06/13 05:53:48;;;;;;;5.80;3.13;;;;;;;;;;10365694;28;20050;-70
2022/06/13 05:58:50;;;;;;;7.80;3.13;;;;;;;;;;10369017;28;20368;-70
2022/06/13 06:03:53;;;;;;;4.50;3.35;;;;;;;;;;10368955;28;20046;-69
2022/06/13 06:08:58;;;;;;;5.20;3.45;;;;;;;;;;10366607;28;20241;-69
2022/06/13 06:14:00;;;;;;;4.35;3.35;;;;;;;;;;10368144;28;20042;-69
2022/06/13 06:19:03;;;;;;;7.22;3.17;;;;;;;;;;10368633;28;20061;-69
2022/06/13 06:24:08;;;;;;;4.53;3.40;;;;;;;;;;10354297;28;20043;-70
2022/06/13 06:29:11;;;;;;;5.30;3.65;;;;;;;;;;10368446;28;20046;-70
2022/06/13 06:34:14;;;;;;;5.25;4.85;;;;;;;;;;10367944;28;20045;-69
2022/06/13 06:39:18;;;;;;;6.60;3.60;;;;;;;;;;10360002;28;20089;-70
2022/06/13 06:44:20;;;;;;;4.25;3.30;;;;;;;;;;10360512;28;20100;-70
2022/06/13 06:49:22;;;;;;;3.90;3.50;;;;;;;;;;10367665;28;20214;-70
2022/06/13 06:59:55;;;;;;;6.50;3.67;;;;;;;;;;10347123;28;20050;-68
2022/06/13 07:05:01;;;;;;;7.03;4.90;;;;;;;;;;10361653;28;20038;-69
2022/06/13 07:10:07;;;;;;;9.35;5.60;;;;;;;;;;10366390;28;20210;-70
2022/06/13 07:15:12;;;;;;;8.98;4.57;;;;;;;;;;10361970;28;20050;-68
2022/06/13 07:20:15;;;;;;;7.40;3.95;;;;;;;;;;10362637;28;20341;-70
2022/06/13 07:25:24;;;;;;;10.00;4.38;;;;;;;;;;10366114;28;20109;-69
2022/06/13 07:30:29;;;;;;;4.35;3.53;;;;;;;;;;10365687;28;20043;-70
2022/06/13 07:35:32;;;;;;;6.82;4.32;;;;;;;;;;10366574;28;20058;-69
2022/06/13 07:40:36;;;;;;;12.35;5.70;;;;;;;;;;10365514;28;20046;-68
2022/06/13 07:45:40;;;;;;;9.13;5.55;;;;;;;;;;10365344;28;20042;-69
2022/06/13 07:50:42;;;;;;;9.75;5.50;;;;;;;;;;10365715;28;20054;-70
2022/06/13 07:55:46;;;;;;;6.03;4.85;;;;;;;;;;10351018;28;20045;-68
2022/06/13 08:00:50;;;;;;;7.47;5.20;;;;;;;;;;10358295;28;20050;-69
2022/06/13 08:05:53;;;;;;;6.63;5.68;;;;;;;;;;10364613;28;20046;-70
2022/06/13 08:11:02;;;;;;;12.95;7.05;;;;;;;;;;10363478;28;20050;-68
2022/06/13 08:16:06;;;;;;;7.40;6.13;;;;;;;;;;10360449;28;20038;-68
2022/06/13 08:21:09;;;;;;;9.13;6.85;;;;;;;;;;10358768;28;20054;-69
2022/06/13 08:26:13;;;;;;;8.05;7.13;;;;;;;;;;10363810;28;20049;-69
2022/06/13 08:31:19;;;;;;;13.50;7.82;;;;;;;;;;10363758;28;20043;-70
2022/06/13 08:36:22;;;;;;;12.50;9.40;;;;;;;;;;10355002;28;20042;-68
2022/06/13 08:41:37;;;;;;;16.48;10.05;;;;;;;;;;10364152;28;20050;-68
2022/06/13 08:46:52;;;;;;;20.17;11.70;;;;;;;;;;10363394;28;20042;-69
2022/06/13 08:52:03;;;;;;;17.92;10.93;;;;;;;;;;10360725;28;20046;-69
2022/06/13 08:57:10;;;;;;;10.50;8.95;;;;;;;;;;10360861;28;20447;-68
2022/06/13 09:02:16;;;;;;;18.85;8.73;;;;;;;;;;10355845;28;20046;-69
2022/06/13 09:07:26;;;;;;;13.55;9.75;;;;;;;;;;10350077;28;20050;-68
2022/06/13 09:12:38;;;;;;;12.50;8.73;;;;;;;;;;10362790;28;20065;-69
2022/06/13 09:17:49;;;;;;;14.60;10.60;;;;;;;;;;10362233;28;20042;-69
2022/06/13 09:23:00;;;;;;;12.77;9.07;;;;;;;;;;10351571;28;20061;-69
2022/06/13 09:28:10;;;;;;;10.77;9.07;;;;;;;;;;10360152;28;20250;-67
2022/06/13 09:33:20;;;;;;;18.98;9.88;;;;;;;;;;10354592;28;20057;-69
2022/06/13 09:38:25;;;;;;;13.23;9.57;;;;;;;;;;10354830;28;20042;-68
2022/06/13 09:43:44;;;;;;;12.45;9.23;;;;;;;;;;10367640;28;20045;-69
2022/06/13 09:48:55;;;;;;;11.23;9.15;;;;;;;;;;10369476;28;20046;-68
2022/06/13 09:54:10;;;;;;;11.98;9.02;;;;;;;;;;10370505;28;20034;-68
2022/06/13 09:59:18;;;;;;;;;;;;;;;;;;10370298;28;20079;-69
2022/06/13 10:04:28;;;;;;;12.48;8.98;;;;;;;;;;10369676;28;19921;-69
2022/06/13 10:09:43;;;;;;;7.05;6.30;;;;;;;;;;10369578;28;20243;-69
2022/06/13 10:15:14;;;;;;;6.32;5.45;;;;;;;;;;10354792;28;20077;-69
2022/06/13 10:20:22;;;;;;;8.27;5.15;;;;;;;;;;10366544;28;20092;-68
2022/06/13 10:25:38;;;;;;;5.00;3.35;;;;;;;;;;10288278;28;20048;-68
2022/06/13 10:30:51;;;;;;;7.38;3.75;;;;;;;;;;10274969;28;20047;-68
2022/06/13 10:36:02;;;;;;;7.60;4.47;;;;;;;;;;10283849;28;20102;-68
2022/06/13 10:41:05;;;;;;;10.82;4.20;;;;;;;;;;10266996;28;20318;-68
2022/06/13 10:46:11;;;;;;;6.63;3.80;;;;;;;;;;10286148;28;20226;-69
2022/06/13 10:51:14;;;;;;;5.70;4.43;;;;;;;;;;10287145;28;20062;-69
2022/06/13 10:56:20;;;;;;;4.03;3.60;;;;;;;;;;10285958;28;20046;-68
2022/06/13 11:01:26;;;;;;;6.65;3.90;;;;;;;;;;10286905;28;20051;-68
2022/06/13 11:06:35;;;;;;;9.80;8.82;;;;;;;;;;10286481;28;20098;-68
2022/06/13 11:11:40;;;;;;;10.68;5.25;;;;;;;;;;10272999;29;20135;-68
2022/06/13 11:27:43;;;;;;;8.85;4.70;;;;;;;;;;10366486;28;20038;-69
2022/06/13 11:32:59;;;;;;;5.38;4.03;;;;;;;;;;10365539;28;20045;-68
2022/06/13 11:38:20;;;;;;;4.57;2.75;;;;;;;;;;10365981;28;20038;-68
2022/06/13 11:43:34;;;;;;;5.10;2.70;;;;;;;;;;10365324;28;20053;-69
2022/06/13 11:48:46;;;;;;;7.03;2.78;;;;;;;;;;10357703;28;20038;-67
2022/06/13 11:53:49;;;;;;;4.95;2.83;;;;;;;;;;10344405;28;20186;-69
2022/06/13 11:58:55;;;;;;;5.78;4.43;;;;;;;;;;10364737;28;20049;-69
2022/06/13 12:04:14;;;;;;;6.55;2.33;;;;;;;;;;10363253;28;20045;-68
2022/06/13 12:09:21;;;;;;;5.50;2.47;;;;;;;;;;10364165;28;20042;-67
2022/06/13 12:14:25;;;;;;;2.35;1.92;;;;;;;;;;10364306;28;20373;-69
2022/06/13 12:19:46;;;;;;;3.42;2.08;;;;;;;;;;10347333;28;20062;-69
2022/06/13 12:25:00;;;;;;;5.30;2.17;;;;;;;;;;10346455;28;20258;-69
2022/06/13 12:30:40;;;;;;;4.57;2.27;;;;;;;;;;10356807;28;20085;-69
2022/06/13 12:35:59;;;;;;;4.82;2.63;;;;;;;;;;10300005;28;20268;-68
2022/06/13 12:41:10;;;;;;;4.97;2.88;;;;;;;;;;10364796;28;20089;-69
2022/06/13 12:46:37;;;;;;;3.88;2.30;;;;;;;;;;10363208;28;20038;-69
2022/06/13 12:51:50;;;;;;;9.15;6.45;;;;;;;;;;10345022;28;20046;-69
2022/06/13 12:57:01;;;;;;;5.78;5.15;;;;;;;;;;10364386;28;20042;-69
2022/06/13 13:02:19;;;;;;;3.40;2.17;;;;;;;;;;10363239;28;20053;-68
2022/06/13 13:07:34;;;;;;;5.97;4.00;;;;;;;;;;10351902;28;20284;-68
2022/06/13 13:13:01;;;;;;;3.05;1.75;;;;;;;;;;10362388;28;20050;-71
2022/06/13 13:18:10;;;;;;;4.20;2.38;;;;;;;;;;10358499;28;20038;-70
2022/06/13 13:23:37;;;;;;;4.00;2.10;;;;;;;;;;10353328;28;20073;-69
2022/06/13 13:28:48;;;;;;;2.60;1.80;;;;;;;;;;10373125;28;20038;-71
2022/06/13 13:34:03;;;;;;;2.40;1.92;;;;;;;;;;10367139;28;20053;-69
2022/06/13 13:39:21;;;;;;;5.65;1.88;;;;;;;;;;10368011;28;20050;-71
2022/06/13 13:44:28;;;;;;;3.65;2.08;;;;;;;;;;10380536;28;20237;-70
2022/06/13 13:49:34;;;;;;;6.40;2.65;;;;;;;;;;10369310;28;20342;-70
2022/06/13 13:54:42;;;;;;;2.72;2.13;;;;;;;;;;10371992;28;20061;-70
2022/06/13 13:59:49;;;;;;;3.47;2.10;;;;;;;;;;10365927;28;20050;-70
2022/06/13 14:05:01;;;;;;;6.03;2.22;;;;;;;;;;10369394;28;20053;-70
2022/06/13 14:10:07;;;;;;;3.30;2.35;;;;;;;;;;10355727;28;20053;-70
2022/06/13 14:15:18;;;;;;;4.97;2.70;;;;;;;;;;10368133;28;20038;-71
2022/06/13 14:20:26;;;;;;;4.45;2.38;;;;;;;;;;10365056;28;20038;-70
2022/06/13 14:25:39;;;;;;;5.15;2.05;;;;;;;;;;10286952;28;20330;-70
2022/06/13 14:31:07;;;;;;;4.22;2.22;;;;;;;;;;10274500;28;20063;-69
2022/06/13 14:36:10;;;;;;;8.60;3.47;;;;;;;;;;10281868;28;20043;-70
2022/06/13 14:41:16;;;;;;;;;;;;;;;;;;10274927;28;20047;-71
2022/06/13 14:46:31;;;;;;;4.00;2.20;;;;;;;;;;10286989;28;19965;-69
2022/06/13 14:51:56;;;;;;;5.50;2.00;;;;;;;;;;10274928;28;20389;-71
2022/06/13 14:57:43;;;;;;;4.97;1.67;;;;;;;;;;10286605;28;20331;-71
2022/06/13 15:03:02;;;;;;;2.22;1.63;;;;;;;;;;10266721;28;20051;-71
2022/06/13 15:08:11;;;;;;;2.70;2.00;;;;;;;;;;10286082;28;20047;-71
2022/06/13 15:13:19;;;;;;;3.67;2.28;;;;;;;;;;10285283;28;20039;-70
2022/06/13 15:18:27;;;;;;;2.35;1.90;;;;;;;;;;10288493;28;20337;-70
2022/06/13 15:23:35;;;;;;;8.23;2.78;;;;;;;;;;10325519;28;20069;-70
2022/06/13 15:29:28;;;;;;;3.55;2.03;;;;;;;;;;10354887;28;20320;-74
2022/06/13 15:34:32;;;;;;;4.75;1.98;;;;;;;;;;10364501;28;20049;-68
2022/06/13 15:39:37;;;;;;;3.17;2.08;;;;;;;;;;10366216;28;20065;-73
2022/06/13 15:44:43;;;;;;;2.30;1.92;;;;;;;;;;10363558;28;20042;-69
2022/06/13 15:49:46;;;;;;;4.35;2.10;;;;;;;;;;10356206;28;20210;-71
2022/06/13 15:54:58;;;;;;;3.70;2.20;;;;;;;;;;10331788;28;20046;-72
2022/06/13 16:00:05;;;;;;;4.65;2.22;;;;;;;;;;10374156;28;20046;-71
2022/06/13 16:05:14;;;;;;;2.55;2.05;;;;;;;;;;10344468;28;20050;-70
2022/06/13 16:10:19;;;;;;;2.88;2.00;;;;;;;;;;10350007;28;20050;-70
2022/06/13 16:15:26;;;;;;;5.07;1.92;;;;;;;;;;10362393;28;20045;-70
2022/06/13 16:20:31;;;;;;;2.15;1.95;;;;;;;;;;10335331;28;20058;-68
2022/06/13 16:25:35;;;;;;;2.42;1.92;;;;;;;;;;10359841;28;20238;-71
2022/06/13 16:30:41;;;;;;;2.65;1.38;;;;;;;;;;10366264;28;20042;-69
2022/06/13 16:35:45;;;;;;;4.00;1.65;;;;;;;;;;10368611;28;20348;-70
2022/06/13 16:40:50;;;;;;;2.97;1.75;;;;;;;;;;10377943;28;20069;-70
2022/06/13 16:46:05;;;;;;;1.30;1.20;;;;;;;;;;10367182;28;20043;-70
2022/06/13 16:51:11;;;;;;;3.88;1.60;;;;;;;;;;10372633;28;20038;-71
2022/06/13 16:56:16;;;;;;;5.72;1.75;;;;;;;;;;10376285;28;20046;-70
2022/06/13 17:01:21;;;;;;;3.75;1.48;;;;;;;;;;10375382;28;20042;-69
2022/06/13 17:06:28;;;;;;;1.50;1.30;;;;;;;;;;10374563;28;20050;-70
2022/06/13 17:11:57;;;;;;;1.20;1.10;;;;;;;;;;10374790;28;20042;-70
2022/06/13 17:17:01;;;;;;;2.28;1.50;;;;;;;;;;10375900;28;20041;-70
2022/06/13 17:22:04;;;;;;;3.25;1.73;;;;;;;;;;10356492;28;20050;-72
2022/06/13 17:32:29;;;;;;;2.78;1.52;;;;;;;;;;10365413;28;20057;-72
2022/06/13 17:37:36;;;;;;;1.83;1.52;;;;;;;;;;10367298;28;20077;-69
2022/06/13 17:42:39;;;;;;;2.85;1.80;;;;;;;;;;10375335;28;20129;-69
2022/06/13 17:47:46;;;;;;;3.13;1.75;;;;;;;;;;10372704;28;20043;-69
2022/06/13 17:52:49;;;;;;;1.95;1.50;;;;;;;;;;10370523;28;20057;-69
2022/06/13 17:57:52;;;;;;;3.25;2.08;;;;;;;;;;10367747;28;20061;-69
2022/06/13 18:02:59;;;;;;;8.87;2.30;;;;;;;;;;10369842;28;20045;-70
2022/06/13 18:08:04;;;;;;;3.45;2.40;;;;;;;;;;10371189;28;20045;-70
2022/06/13 18:13:07;;;;;;;3.22;1.95;;;;;;;;;;10358316;28;20384;-68
2022/06/13 18:18:12;;;;;;;2.75;2.10;;;;;;;;;;10370962;28;20042;-70
2022/06/13 18:23:15;;;;;;;5.88;2.40;;;;;;;;;;10361351;28;20070;-69
2022/06/13 18:28:19;;;;;;;3.70;2.33;;;;;;;;;;10372560;28;20042;-69
2022/06/13 18:33:23;;;;;;;;;;;;;;;;;;10373643;28;20053;-70
2022/06/13 18:38:29;;;;;;;4.10;2.30;;;;;;;;;;10371097;28;19917;-69
2022/06/13 18:43:34;;;;;;;3.15;2.13;;;;;;;;;;10368440;28;20077;-70
2022/06/13 18:48:38;;;;;;;2.67;2.20;;;;;;;;;;10369929;28;20058;-70
2022/06/13 18:53:42;;;;;;;;;;;;;;;;;;10370232;28;20046;-70
2022/06/13 18:58:44;;;;;;;5.75;3.50;;;;;;;;;;10364365;28;19925;-69
2022/06/13 19:03:55;;;;;;;5.43;3.30;;;;;;;;;;10367682;28;20356;-69
2022/06/13 19:08:59;;;;;;;5.50;3.35;;;;;;;;;;10367727;28;20237;-69
2022/06/13 19:14:05;;;;;;;7.10;2.83;;;;;;;;;;10364020;28;20113;-69
2022/06/13 19:19:10;;;;;;;5.25;2.80;;;;;;;;;;10366985;28;20077;-68
2022/06/13 19:24:13;;;;;;;4.90;2.45;;;;;;;;;;10345898;28;20062;-69
2022/06/13 19:29:21;;;;;;;4.72;2.17;;;;;;;;;;10353068;28;20050;-68
2022/06/13 19:34:28;;;;;;;5.20;2.50;;;;;;;;;;10364810;28;20042;-68
2022/06/13 19:39:35;;;;;;;9.48;3.00;;;;;;;;;;10347458;28;20046;-67
2022/06/13 19:44:38;;;;;;;5.03;2.58;;;;;;;;;;10364136;28;20045;-67
2022/06/13 19:49:42;;;;;;;7.90;3.60;;;;;;;;;;10365619;28;20149;-68
2022/06/13 19:54:45;;;;;;;11.85;4.07;;;;;;;;;;10350537;28;20332;-68
2022/06/13 19:59:48;;;;;;;6.80;3.80;;;;;;;;;;10352016;28;20458;-68
2022/06/13 20:04:52;;;;;;;14.10;4.68;;;;;;;;;;10365910;28;20050;-68
2022/06/13 20:09:54;;;;;;;6.23;2.77;;;;;;;;;;10361726;28;20038;-69
2022/06/13 20:15:00;;;;;;;6.97;2.88;;;;;;;;;;10365612;28;20053;-69
2022/06/13 20:20:09;;;;;;;5.20;2.58;;;;;;;;;;10363125;28;20061;-66
2022/06/13 20:25:12;;;;;;;5.93;2.30;;;;;;;;;;10345728;28;20051;-68
2022/06/13 20:30:15;;;;;;;4.90;3.05;;;;;;;;;;10361496;28;20072;-68
2022/06/13 20:35:22;;;;;;;6.13;2.80;;;;;;;;;;10357085;28;20046;-68
2022/06/13 20:40:25;;;;;;;3.00;2.30;;;;;;;;;;10364909;28;20057;-66
2022/06/13 20:45:31;;;;;;;5.57;2.75;;;;;;;;;;10361730;28;20038;-68
2022/06/13 20:50:35;;;;;;;5.43;2.92;;;;;;;;;;10364842;28;20329;-68
2022/06/13 20:55:38;;;;;;;6.00;2.80;;;;;;;;;;10350042;28;20061;-69
2022/06/13 21:00:40;;;;;;;5.05;2.50;;;;;;;;;;10351073;28;20245;-68
2022/06/13 21:05:47;;;;;;;4.95;2.22;;;;;;;;;;10363907;28;20246;-68
2022/06/13 21:10:52;;;;;;;5.28;2.40;;;;;;;;;;10351404;28;20062;-68
2022/06/13 21:15:58;;;;;;;4.40;2.05;;;;;;;;;;10361271;28;20242;-67
2022/06/13 21:21:03;;;;;;;3.90;2.53;;;;;;;;;;10350129;28;20126;-67
2022/06/13 21:26:05;;;;;;;1.70;1.60;;;;;;;;;;10341051;28;20057;-67
2022/06/13 21:31:08;;;;;;;2.15;1.88;;;;;;;;;;10349763;28;20046;-66
2022/06/13 21:36:12;;;;;;;4.88;2.03;;;;;;;;;;10329962;28;20077;-68
2022/06/13 21:41:15;;;;;;;2.40;1.70;;;;;;;;;;10357404;28;20046;-67
2022/06/13 21:46:18;;;;;;;1.98;1.75;;;;;;;;;;10373835;28;20233;-68
2022/06/13 21:51:22;;;;;;;2.40;1.98;;;;;;;;;;10374972;28;20050;-66
2022/06/13 21:56:25;;;;;;;1.85;1.75;;;;;;;;;;10359995;28;20046;-68
2022/06/13 22:01:27;;;;;;;2.08;1.73;;;;;;;;;;10358928;28;20058;-67
2022/06/13 22:06:32;;;;;;;2.28;1.95;;;;;;;;;;10349669;28;20050;-67
2022/06/13 22:11:34;;;;;;;2.13;1.70;;;;;;;;;;10327857;28;20062;-67
2022/06/13 22:16:37;;;;;;;6.40;2.33;;;;;;;;;;10358522;28;20066;-67
2022/06/13 22:21:41;;;;;;;5.05;1.98;;;;;;;;;;10364834;28;20089;-67
2022/06/13 22:26:44;;;;;;;2.50;1.70;;;;;;;;;;10371680;28;20050;-67
2022/06/13 22:31:46;;;;;;;3.17;2.10;;;;;;;;;;10357773;28;20054;-67
2022/06/13 22:36:50;;;;;;;2.17;1.70;;;;;;;;;;10371105;28;20241;-65
2022/06/13 22:41:53;;;;;;;1.87;1.73;;;;;;;;;;10357370;28;20057;-66
2022/06/13 22:52:21;;;;;;;3.92;1.90;;;;;;;;;;10357509;28;20088;-66
2022/06/13 22:57:26;;;;;;;3.38;2.00;;;;;;;;;;10357063;28;20097;-68
2022/06/13 23:02:29;;;;;;;4.38;2.42;;;;;;;;;;10357532;28;20062;-67
2022/06/13 23:07:34;;;;;;;2.38;2.10;;;;;;;;;;10369872;28;20442;-67
2022/06/13 23:12:37;;;;;;;3.13;2.20;;;;;;;;;;10368899;28;20346;-67
2022/06/13 23:17:40;;;;;;;2.55;1.80;;;;;;;;;;10359222;28;20356;-66
2022/06/13 23:22:44;;;;;;;2.38;2.17;;;;;;;;;;10350270;28;20066;-66
2022/06/13 23:27:46;;;;;;;2.25;1.92;;;;;;;;;;10355794;28;20054;-66
2022/06/13 23:32:49;;;;;;;2.60;1.88;;;;;;;;;;10369298;28;20345;-67
2022/06/13 23:37:53;;;;;;;2.85;2.20;;;;;;;;;;10354856;28;20054;-67
2022/06/13 23:42:55;;;;;;;4.67;2.10;;;;;;;;;;10368628;28;20046;-67
2022/06/13 23:48:16;;;;;;;2.50;2.03;;;;;;;;;;10354360;28;20054;-68
2022/06/13 23:53:38;;;;;;;3.20;2.33;;;;;;;;;;10354473;28;20199;-66
2022/06/13 23:58:58;;;;;;;2.83;2.40;;;;;;;;;;10353409;28;20109;-68
